sensor_id;sensor_type;location;lat;lon;timestamp;pressure;altitude;pressure_sealevel;temperature;humidity
77869;BME280;67231;59.144;37.934;2023-08-30T00:01:01;100206.09;;;9.77;82.78
77869;BME280;67231;59.144;37.934;2023-08-30T00:03:28;100194.97;;;9.74;82.79
77869;BME280;67231;59.144;37.934;2023-08-30T00:05:54;100199.72;;;9.70;83.05
77869;BME280;67231;59.144;37.934;2023-08-30T00:08:21;100201.81;;;9.66;83.25
77869;BME280;67231;59.144;37.934;2023-08-30T00:10:48;100201.25;;;9.63;82.98
77869;BME280;67231;59.144;37.934;2023-08-30T00:13:15;100208.50;;;9.61;82.68
77869;BME280;67231;59.144;37.934;2023-08-30T00:15:42;100199.19;;;9.57;83.07
77869;BME280;67231;59.144;37.934;2023-08-30T00:18:08;100201.97;;;9.55;83.38
77869;BME280;67231;59.144;37.934;2023-08-30T00:20:35;100213.53;;;9.54;83.45
77869;BME280;67231;59.144;37.934;2023-08-30T00:23:01;100199.75;;;9.51;82.81
77869;BME280;67231;59.144;37.934;2023-08-30T00:25:28;100198.22;;;9.48;83.08
77869;BME280;67231;59.144;37.934;2023-08-30T00:27:54;100202.69;;;9.47;83.19
77869;BME280;67231;59.144;37.934;2023-08-30T00:30:20;100194.03;;;9.45;83.57
77869;BME280;67231;59.144;37.934;2023-08-30T00:32:47;100191.81;;;9.41;83.20
77869;BME280;67231;59.144;37.934;2023-08-30T00:35:14;100197.38;;;9.38;83.32
77869;BME280;67231;59.144;37.934;2023-08-30T00:37:40;100191.81;;;9.31;83.41
77869;BME280;67231;59.144;37.934;2023-08-30T00:40:07;100193.06;;;9.27;83.57
77869;BME280;67231;59.144;37.934;2023-08-30T00:42:33;100185.25;;;9.25;83.37
77869;BME280;67231;59.144;37.934;2023-08-30T00:45:00;100192.50;;;9.23;83.45
77869;BME280;67231;59.144;37.934;2023-08-30T00:47:27;100184.56;;;9.23;83.68
77869;BME280;67231;59.144;37.934;2023-08-30T00:49:53;100186.34;;;9.23;82.75
77869;BME280;67231;59.144;37.934;2023-08-30T00:52:20;100190.97;;;9.21;83.39
77869;BME280;67231;59.144;37.934;2023-08-30T00:54:47;100183.28;;;9.18;82.79
77869;BME280;67231;59.144;37.934;2023-08-30T00:57:14;100186.22;;;9.15;83.03
77869;BME280;67231;59.144;37.934;2023-08-30T00:59:42;100182.88;;;9.13;83.06
77869;BME280;67231;59.144;37.934;2023-08-30T01:02:09;100177.88;;;9.09;83.26
77869;BME280;67231;59.144;37.934;2023-08-30T01:04:35;100183.28;;;9.08;82.74
77869;BME280;67231;59.144;37.934;2023-08-30T01:07:02;100185.81;;;9.09;83.72
77869;BME280;67231;59.144;37.934;2023-08-30T01:09:28;100192.38;;;9.05;83.05
77869;BME280;67231;59.144;37.934;2023-08-30T01:11:57;100187.06;;;9.05;83.43
77869;BME280;67231;59.144;37.934;2023-08-30T01:14:49;100184.84;;;9.01;83.43
77869;BME280;67231;59.144;37.934;2023-08-30T01:17:18;100188.72;;;8.97;83.50
77869;BME280;67231;59.144;37.934;2023-08-30T01:22:43;100187.91;;;8.96;83.62
77869;BME280;67231;59.144;37.934;2023-08-30T01:27:42;100196.81;;;8.95;83.16
77869;BME280;67231;59.144;37.934;2023-08-30T01:30:10;100194.44;;;8.92;83.22
77869;BME280;67231;59.144;37.934;2023-08-30T01:32:38;100195.69;;;8.88;83.05
77869;BME280;67231;59.144;37.934;2023-08-30T01:35:06;100186.91;;;8.87;83.72
77869;BME280;67231;59.144;37.934;2023-08-30T01:37:34;100178.25;;;8.85;83.44
77869;BME280;67231;59.144;37.934;2023-08-30T01:40:02;100189.94;;;8.83;83.59
77869;BME280;67231;59.144;37.934;2023-08-30T01:42:32;100190.25;;;8.80;83.19
77869;BME280;67231;59.144;37.934;2023-08-30T01:45:00;100185.22;;;8.77;83.63
77869;BME280;67231;59.144;37.934;2023-08-30T01:47:28;100190.78;;;8.73;83.32
77869;BME280;67231;59.144;37.934;2023-08-30T01:49:56;100190.78;;;8.73;83.63
77869;BME280;67231;59.144;37.934;2023-08-30T01:52:24;100181.31;;;8.71;83.67
77869;BME280;67231;59.144;37.934;2023-08-30T01:54:52;100181.31;;;8.71;83.67
77869;BME280;67231;59.144;37.934;2023-08-30T01:57:21;100180.47;;;8.70;83.48
77869;BME280;67231;59.144;37.934;2023-08-30T01:59:48;100185.06;;;8.68;83.65
77869;BME280;67231;59.144;37.934;2023-08-30T02:02:15;100194.78;;;8.68;83.23
77869;BME280;67231;59.144;37.934;2023-08-30T02:04:41;100186.72;;;8.69;83.38
77869;BME280;67231;59.144;37.934;2023-08-30T02:07:16;100203.28;;;8.71;83.60
77869;BME280;67231;59.144;37.934;2023-08-30T02:10:00;100190.78;;;8.73;83.65
77869;BME280;67231;59.144;37.934;2023-08-30T02:12:42;100195.22;;;8.73;83.59
77869;BME280;67231;59.144;37.934;2023-08-30T02:15:10;100192.72;;;8.71;83.16
77869;BME280;67231;59.144;37.934;2023-08-30T02:17:38;100198.84;;;8.72;83.40
77869;BME280;67231;59.144;37.934;2023-08-30T02:20:06;100204.16;;;8.72;83.40
77869;BME280;67231;59.144;37.934;2023-08-30T02:22:33;100209.56;;;8.70;83.83
77869;BME280;67231;59.144;37.934;2023-08-30T02:25:00;100199.00;;;8.70;83.14
77869;BME280;67231;59.144;37.934;2023-08-30T02:27:34;100203.16;;;8.73;82.89
77869;BME280;67231;59.144;37.934;2023-08-30T02:30:02;100200.25;;;8.76;83.15
77869;BME280;67231;59.144;37.934;2023-08-30T02:32:33;100196.78;;;8.75;82.92
77869;BME280;67231;59.144;37.934;2023-08-30T02:35:00;100202.75;;;8.78;82.92
77869;BME280;67231;59.144;37.934;2023-08-30T02:37:26;100197.47;;;8.78;82.86
77869;BME280;67231;59.144;37.934;2023-08-30T02:39:53;100200.09;;;8.78;83.40
77869;BME280;67231;59.144;37.934;2023-08-30T02:42:19;100204.16;;;8.82;82.85
77869;BME280;67231;59.144;37.934;2023-08-30T02:44:46;100204.84;;;8.84;83.26
77869;BME280;67231;59.144;37.934;2023-08-30T02:47:12;100200.41;;;8.84;82.82
77869;BME280;67231;59.144;37.934;2023-08-30T02:49:39;100209.63;;;8.90;82.92
77869;BME280;67231;59.144;37.934;2023-08-30T02:52:06;100209.91;;;8.97;82.96
77869;BME280;67231;59.144;37.934;2023-08-30T02:54:32;100201.97;;;9.06;82.20
77869;BME280;67231;59.144;37.934;2023-08-30T02:56:59;100209.09;;;9.16;82.29
77869;BME280;67231;59.144;37.934;2023-08-30T02:59:26;100209.22;;;9.24;82.24
77869;BME280;67231;59.144;37.934;2023-08-30T03:01:52;100212.88;;;9.33;81.92
77869;BME280;67231;59.144;37.934;2023-08-30T03:04:19;100216.91;;;9.37;82.18
77869;BME280;67231;59.144;37.934;2023-08-30T03:06:46;100204.78;;;9.44;82.36
77869;BME280;67231;59.144;37.934;2023-08-30T03:09:13;100196.25;;;9.50;82.33
77869;BME280;67231;59.144;37.934;2023-08-30T03:11:40;100201.84;;;9.57;82.03
77869;BME280;67231;59.144;37.934;2023-08-30T03:14:07;100194.03;;;9.65;81.68
77869;BME280;67231;59.144;37.934;2023-08-30T03:16:33;100197.63;;;9.74;81.97
77869;BME280;67231;59.144;37.934;2023-08-30T03:18:59;100191.59;;;9.81;81.53
77869;BME280;67231;59.144;37.934;2023-08-30T03:21:26;100197.84;;;9.90;81.39
77869;BME280;67231;59.144;37.934;2023-08-30T03:23:52;100205.19;;;10.06;80.92
77869;BME280;67231;59.144;37.934;2023-08-30T03:26:19;100201.41;;;10.18;80.41
77869;BME280;67231;59.144;37.934;2023-08-30T03:28:45;100203.88;;;10.30;80.57
77869;BME280;67231;59.144;37.934;2023-08-30T03:31:19;100210.31;;;10.37;80.42
77869;BME280;67231;59.144;37.934;2023-08-30T03:33:48;100217.06;;;10.49;80.27
77869;BME280;67231;59.144;37.934;2023-08-30T03:36:18;100210.59;;;10.62;80.39
77869;BME280;67231;59.144;37.934;2023-08-30T03:38:45;100202.97;;;10.77;79.88
77869;BME280;67231;59.144;37.934;2023-08-30T03:41:12;100208.22;;;10.86;79.53
77869;BME280;67231;59.144;37.934;2023-08-30T03:43:39;100209.31;;;10.93;79.85
77869;BME280;67231;59.144;37.934;2023-08-30T03:46:06;100213.00;;;11.01;79.25
77869;BME280;67231;59.144;37.934;2023-08-30T03:48:33;100221.06;;;11.09;79.44
77869;BME280;67231;59.144;37.934;2023-08-30T03:50:59;100219.84;;;11.21;79.25
77869;BME280;67231;59.144;37.934;2023-08-30T03:53:26;100225.16;;;11.21;79.58
77869;BME280;67231;59.144;37.934;2023-08-30T03:55:53;100228.81;;;11.20;79.66
77869;BME280;67231;59.144;37.934;2023-08-30T03:58:19;100216.44;;;11.29;79.89
77869;BME280;67231;59.144;37.934;2023-08-30T04:00:46;100228.03;;;11.46;78.98
77869;BME280;67231;59.144;37.934;2023-08-30T04:03:14;100216.81;;;11.52;78.79
77869;BME280;67231;59.144;37.934;2023-08-30T04:05:41;100219.53;;;11.60;79.46
77869;BME280;67231;59.144;37.934;2023-08-30T04:08:08;100219.81;;;11.75;78.77
77869;BME280;67231;59.144;37.934;2023-08-30T04:10:39;100225.13;;;11.93;78.90
77869;BME280;67231;59.144;37.934;2023-08-30T04:13:06;100226.25;;;12.09;78.66
77869;BME280;67231;59.144;37.934;2023-08-30T04:15:35;100217.28;;;12.18;78.89
77869;BME280;67231;59.144;37.934;2023-08-30T04:18:02;100223.56;;;12.35;78.59
77869;BME280;67231;59.144;37.934;2023-08-30T04:20:29;100216.84;;;12.57;78.29
77869;BME280;67231;59.144;37.934;2023-08-30T04:22:55;100216.75;;;12.83;77.69
77869;BME280;67231;59.144;37.934;2023-08-30T04:25:23;100222.44;;;13.05;77.43
77869;BME280;67231;59.144;37.934;2023-08-30T04:27:50;100231.47;;;13.20;77.38
77869;BME280;67231;59.144;37.934;2023-08-30T04:30:17;100229.31;;;13.32;77.38
77869;BME280;67231;59.144;37.934;2023-08-30T04:32:44;100230.69;;;13.36;77.66
77869;BME280;67231;59.144;37.934;2023-08-30T04:35:10;100233.53;;;13.51;77.46
77869;BME280;67231;59.144;37.934;2023-08-30T04:37:37;100236.72;;;13.55;77.42
77869;BME280;67231;59.144;37.934;2023-08-30T04:40:06;100245.06;;;13.60;77.79
77869;BME280;67231;59.144;37.934;2023-08-30T04:42:37;100247.06;;;13.74;77.66
77869;BME280;67231;59.144;37.934;2023-08-30T04:45:07;100236.22;;;13.84;77.55
77869;BME280;67231;59.144;37.934;2023-08-30T04:47:35;100234.69;;;14.06;77.58
77869;BME280;67231;59.144;37.934;2023-08-30T04:50:03;100234.69;;;14.06;77.59
77869;BME280;67231;59.144;37.934;2023-08-30T04:52:32;100233.34;;;14.02;78.18
77869;BME280;67231;59.144;37.934;2023-08-30T04:55:00;100241.16;;;14.12;77.77
77869;BME280;67231;59.144;37.934;2023-08-30T04:57:31;100253.34;;;14.14;78.04
77869;BME280;67231;59.144;37.934;2023-08-30T04:59:58;100249.63;;;14.32;77.63
77869;BME280;67231;59.144;37.934;2023-08-30T05:02:25;100244.09;;;14.42;77.61
77869;BME280;67231;59.144;37.934;2023-08-30T05:05:05;100238.03;;;14.56;77.29
77869;BME280;67231;59.144;37.934;2023-08-30T05:07:32;100234.88;;;14.52;77.79
77869;BME280;67231;59.144;37.934;2023-08-30T05:09:59;100240.72;;;14.56;77.99
77869;BME280;67231;59.144;37.934;2023-08-30T05:12:26;100230.25;;;14.46;77.98
77869;BME280;67231;59.144;37.934;2023-08-30T05:14:53;100237.41;;;14.46;77.94
77869;BME280;67231;59.144;37.934;2023-08-30T05:17:20;100249.28;;;14.35;78.55
77869;BME280;67231;59.144;37.934;2023-08-30T05:19:46;100247.31;;;14.29;78.79
77869;BME280;67231;59.144;37.934;2023-08-30T05:22:13;100242.63;;;14.31;78.91
77869;BME280;67231;59.144;37.934;2023-08-30T05:24:39;100242.09;;;14.44;78.32
77869;BME280;67231;59.144;37.934;2023-08-30T05:27:06;100235.72;;;14.53;78.37
77869;BME280;67231;59.144;37.934;2023-08-30T05:29:39;100239.53;;;14.58;78.39
77869;BME280;67231;59.144;37.934;2023-08-30T05:32:05;100236.03;;;14.66;78.57
77869;BME280;67231;59.144;37.934;2023-08-30T05:34:52;100235.41;;;14.87;78.25
77869;BME280;67231;59.144;37.934;2023-08-30T05:37:38;100244.84;;;15.06;78.14
77869;BME280;67231;59.144;37.934;2023-08-30T05:40:25;100231.94;;;15.10;77.75
77869;BME280;67231;59.144;37.934;2023-08-30T05:42:51;100235.31;;;15.12;78.22
77869;BME280;67231;59.144;37.934;2023-08-30T05:45:18;100234.22;;;15.21;77.29
77869;BME280;67231;59.144;37.934;2023-08-30T05:47:44;100243.16;;;15.37;77.21
77869;BME280;67231;59.144;37.934;2023-08-30T05:50:11;100236.22;;;15.42;76.45
77869;BME280;67231;59.144;37.934;2023-08-30T05:52:37;100240.13;;;15.40;76.65
77869;BME280;67231;59.144;37.934;2023-08-30T05:55:08;100248.13;;;15.40;76.98
77869;BME280;67231;59.144;37.934;2023-08-30T05:57:35;100242.31;;;15.59;76.29
77869;BME280;67231;59.144;37.934;2023-08-30T06:00:02;100255.06;;;15.72;75.91
77869;BME280;67231;59.144;37.934;2023-08-30T06:02:40;100258.22;;;15.76;75.83
77869;BME280;67231;59.144;37.934;2023-08-30T06:05:08;100265.47;;;15.90;75.78
77869;BME280;67231;59.144;37.934;2023-08-30T06:07:34;100270.25;;;15.80;76.70
77869;BME280;67231;59.144;37.934;2023-08-30T06:10:02;100276.66;;;15.71;76.85
77869;BME280;67231;59.144;37.934;2023-08-30T06:12:30;100281.44;;;15.60;76.69
77869;BME280;67231;59.144;37.934;2023-08-30T06:14:56;100278.59;;;15.54;77.26
77869;BME280;67231;59.144;37.934;2023-08-30T06:17:23;100285.97;;;15.52;77.29
77869;BME280;67231;59.144;37.934;2023-08-30T06:19:49;100284.63;;;15.56;77.36
77869;BME280;67231;59.144;37.934;2023-08-30T06:22:16;100286.97;;;15.59;77.52
77869;BME280;67231;59.144;37.934;2023-08-30T06:24:43;100290.22;;;15.69;77.54
77869;BME280;67231;59.144;37.934;2023-08-30T06:27:09;100290.47;;;15.82;76.93
77869;BME280;67231;59.144;37.934;2023-08-30T06:29:36;100297.09;;;16.10;76.20
77869;BME280;67231;59.144;37.934;2023-08-30T06:32:02;100298.16;;;16.38;75.78
77869;BME280;67231;59.144;37.934;2023-08-30T06:34:29;100291.06;;;16.46;75.07
77869;BME280;67231;59.144;37.934;2023-08-30T06:36:56;100290.97;;;16.39;75.63
77869;BME280;67231;59.144;37.934;2023-08-30T06:39:22;100297.41;;;16.45;75.44
77869;BME280;67231;59.144;37.934;2023-08-30T06:41:49;100295.50;;;16.68;74.73
77869;BME280;67231;59.144;37.934;2023-08-30T06:44:15;100294.16;;;17.09;74.21
77869;BME280;67231;59.144;37.934;2023-08-30T06:46:43;100282.53;;;17.38;73.12
77869;BME280;67231;59.144;37.934;2023-08-30T06:49:09;100282.81;;;17.43;73.11
77869;BME280;67231;59.144;37.934;2023-08-30T06:51:36;100286.19;;;17.31;73.45
77869;BME280;67231;59.144;37.934;2023-08-30T06:54:03;100299.53;;;17.24;73.59
77869;BME280;67231;59.144;37.934;2023-08-30T06:56:30;100302.91;;;17.54;73.11
77869;BME280;67231;59.144;37.934;2023-08-30T06:58:56;100303.69;;;18.13;71.64
77869;BME280;67231;59.144;37.934;2023-08-30T07:01:22;100306.50;;;18.33;71.17
77869;BME280;67231;59.144;37.934;2023-08-30T07:03:49;100300.53;;;18.37;70.95
77869;BME280;67231;59.144;37.934;2023-08-30T07:06:15;100299.25;;;18.97;69.62
77869;BME280;67231;59.144;37.934;2023-08-30T07:08:42;100309.81;;;20.53;66.85
77869;BME280;67231;59.144;37.934;2023-08-30T07:11:09;100301.78;;;21.05;65.89
77869;BME280;67231;59.144;37.934;2023-08-30T07:13:36;100303.72;;;20.91;65.93
77869;BME280;67231;59.144;37.934;2023-08-30T07:16:03;100298.53;;;20.90;65.55
77869;BME280;67231;59.144;37.934;2023-08-30T07:18:29;100300.34;;;21.48;64.20
77869;BME280;67231;59.144;37.934;2023-08-30T07:20:56;100318.69;;;21.71;63.00
77869;BME280;67231;59.144;37.934;2023-08-30T07:23:22;100313.69;;;22.50;61.89
77869;BME280;67231;59.144;37.934;2023-08-30T07:25:48;100322.31;;;23.75;59.02
77869;BME280;67231;59.144;37.934;2023-08-30T07:28:17;100327.25;;;24.32;57.58
77869;BME280;67231;59.144;37.934;2023-08-30T07:30:43;100329.44;;;23.88;57.47
77869;BME280;67231;59.144;37.934;2023-08-30T07:33:09;100331.25;;;24.30;56.05
77869;BME280;67231;59.144;37.934;2023-08-30T07:35:36;100333.31;;;25.51;54.27
77869;BME280;67231;59.144;37.934;2023-08-30T07:38:02;100319.53;;;26.38;52.13
77869;BME280;67231;59.144;37.934;2023-08-30T07:40:28;100318.97;;;27.46;50.16
77869;BME280;67231;59.144;37.934;2023-08-30T07:42:55;100327.06;;;28.28;48.57
77869;BME280;67231;59.144;37.934;2023-08-30T07:45:21;100330.53;;;29.14;46.96
77869;BME280;67231;59.144;37.934;2023-08-30T07:47:47;100333.84;;;29.21;46.23
77869;BME280;67231;59.144;37.934;2023-08-30T07:50:14;100336.09;;;29.39;45.58
77869;BME280;67231;59.144;37.934;2023-08-30T07:52:45;100339.16;;;29.79;44.11
77869;BME280;67231;59.144;37.934;2023-08-30T07:55:11;100344.06;;;30.49;42.79
77869;BME280;67231;59.144;37.934;2023-08-30T07:57:37;100346.19;;;30.78;41.97
77869;BME280;67231;59.144;37.934;2023-08-30T08:00:04;100359.94;;;30.62;41.94
77869;BME280;67231;59.144;37.934;2023-08-30T08:02:38;100353.53;;;30.93;40.99
77869;BME280;67231;59.144;37.934;2023-08-30T08:05:05;100367.13;;;31.23;40.96
77869;BME280;67231;59.144;37.934;2023-08-30T08:07:31;100358.44;;;31.01;40.92
77869;BME280;67231;59.144;37.934;2023-08-30T08:09:58;100353.94;;;30.50;41.80
77869;BME280;67231;59.144;37.934;2023-08-30T08:12:26;100362.94;;;30.61;41.71
77869;BME280;67231;59.144;37.934;2023-08-30T08:14:52;100371.91;;;30.92;41.40
77869;BME280;67231;59.144;37.934;2023-08-30T08:17:18;100378.97;;;31.09;40.47
77869;BME280;67231;59.144;37.934;2023-08-30T08:19:45;100385.47;;;31.28;40.47
77869;BME280;67231;59.144;37.934;2023-08-30T08:22:11;100387.53;;;30.97;40.18
77869;BME280;67231;59.144;37.934;2023-08-30T08:24:37;100380.94;;;30.93;40.47
77869;BME280;67231;59.144;37.934;2023-08-30T08:27:04;100383.69;;;30.87;40.90
77869;BME280;67231;59.144;37.934;2023-08-30T08:29:31;100383.09;;;31.11;40.14
77869;BME280;67231;59.144;37.934;2023-08-30T08:31:58;100387.53;;;30.81;39.66
77869;BME280;67231;59.144;37.934;2023-08-30T08:34:24;100382.59;;;29.45;41.31
77869;BME280;67231;59.144;37.934;2023-08-30T08:36:50;100382.59;;;27.13;45.75
77869;BME280;67231;59.144;37.934;2023-08-30T08:39:17;100387.63;;;25.80;48.50
77869;BME280;67231;59.144;37.934;2023-08-30T08:41:45;100377.25;;;24.96;49.75
77869;BME280;67231;59.144;37.934;2023-08-30T08:44:12;100371.97;;;24.42;51.28
77869;BME280;67231;59.144;37.934;2023-08-30T08:46:40;100371.09;;;23.75;52.16
77869;BME280;67231;59.144;37.934;2023-08-30T08:49:16;100372.38;;;23.42;53.04
77869;BME280;67231;59.144;37.934;2023-08-30T08:51:43;100373.03;;;23.26;53.39
77869;BME280;67231;59.144;37.934;2023-08-30T08:54:11;100381.66;;;23.35;53.15
77869;BME280;67231;59.144;37.934;2023-08-30T08:56:38;100389.75;;;22.98;53.40
77869;BME280;67231;59.144;37.934;2023-08-30T08:59:05;100373.41;;;22.67;54.54
77869;BME280;67231;59.144;37.934;2023-08-30T09:01:35;100373.88;;;22.39;55.11
77869;BME280;67231;59.144;37.934;2023-08-30T09:04:05;100367.00;;;22.43;54.84
77869;BME280;67231;59.144;37.934;2023-08-30T09:06:34;100366.25;;;22.36;55.33
77869;BME280;67231;59.144;37.934;2023-08-30T09:09:02;100379.22;;;22.21;55.63
77869;BME280;67231;59.144;37.934;2023-08-30T09:11:32;100376.78;;;22.12;56.08
77869;BME280;67231;59.144;37.934;2023-08-30T09:13:59;100389.66;;;22.67;55.79
77869;BME280;67231;59.144;37.934;2023-08-30T09:16:26;100394.69;;;23.07;54.00
77869;BME280;67231;59.144;37.934;2023-08-30T09:19:03;100388.41;;;23.25;53.66
77869;BME280;67231;59.144;37.934;2023-08-30T09:21:30;100392.44;;;23.23;53.74
77869;BME280;67231;59.144;37.934;2023-08-30T09:24:03;100384.81;;;23.32;54.11
77869;BME280;67231;59.144;37.934;2023-08-30T09:26:31;100389.91;;;23.40;53.94
77869;BME280;67231;59.144;37.934;2023-08-30T09:29:08;100400.84;;;23.15;54.21
77869;BME280;67231;59.144;37.934;2023-08-30T09:31:38;100402.81;;;22.82;53.85
77869;BME280;67231;59.144;37.934;2023-08-30T09:34:05;100406.53;;;22.44;53.89
77869;BME280;67231;59.144;37.934;2023-08-30T09:36:39;100403.63;;;22.39;53.90
77869;BME280;67231;59.144;37.934;2023-08-30T09:39:12;100399.97;;;22.77;53.82
77869;BME280;67231;59.144;37.934;2023-08-30T09:41:46;100407.81;;;23.04;53.04
77869;BME280;67231;59.144;37.934;2023-08-30T09:44:19;100406.63;;;23.18;52.61
77869;BME280;67231;59.144;37.934;2023-08-30T09:46:50;100390.00;;;23.33;52.80
77869;BME280;67231;59.144;37.934;2023-08-30T09:49:22;100392.47;;;23.53;52.68
77869;BME280;67231;59.144;37.934;2023-08-30T09:51:50;100398.09;;;23.52;52.85
77869;BME280;67231;59.144;37.934;2023-08-30T09:54:19;100391.13;;;23.25;53.02
77869;BME280;67231;59.144;37.934;2023-08-30T09:56:46;100383.59;;;23.46;52.69
77869;BME280;67231;59.144;37.934;2023-08-30T09:59:14;100383.84;;;23.26;52.92
77869;BME280;67231;59.144;37.934;2023-08-30T10:01:42;100386.38;;;23.02;53.83
77869;BME280;67231;59.144;37.934;2023-08-30T10:04:10;100369.97;;;22.79;53.88
77869;BME280;67231;59.144;37.934;2023-08-30T10:06:39;100378.47;;;22.64;53.81
77869;BME280;67231;59.144;37.934;2023-08-30T10:09:07;100369.69;;;22.43;54.47
77869;BME280;67231;59.144;37.934;2023-08-30T10:11:38;100369.22;;;22.21;55.20
77869;BME280;67231;59.144;37.934;2023-08-30T10:14:08;100370.72;;;22.17;55.26
77869;BME280;67231;59.144;37.934;2023-08-30T10:16:46;100375.94;;;22.12;55.70
77869;BME280;67231;59.144;37.934;2023-08-30T10:19:27;100371.88;;;22.03;55.68
77869;BME280;67231;59.144;37.934;2023-08-30T10:22:03;100369.00;;;21.97;55.94
77869;BME280;67231;59.144;37.934;2023-08-30T10:27:16;100357.22;;;22.17;55.68
77869;BME280;67231;59.144;37.934;2023-08-30T10:29:44;100360.75;;;22.17;55.04
77869;BME280;67231;59.144;37.934;2023-08-30T10:32:12;100355.22;;;22.06;55.12
77869;BME280;67231;59.144;37.934;2023-08-30T10:34:38;100357.78;;;21.94;55.39
77869;BME280;67231;59.144;37.934;2023-08-30T10:37:10;100346.91;;;22.07;55.29
77869;BME280;67231;59.144;37.934;2023-08-30T10:39:38;100352.19;;;22.21;54.80
77869;BME280;67231;59.144;37.934;2023-08-30T10:42:13;100350.53;;;22.19;54.66
77869;BME280;67231;59.144;37.934;2023-08-30T10:47:20;100357.84;;;21.87;55.42
77869;BME280;67231;59.144;37.934;2023-08-30T10:49:48;100356.91;;;22.00;55.70
77869;BME280;67231;59.144;37.934;2023-08-30T10:52:15;100354.31;;;22.12;54.42
77869;BME280;67231;59.144;37.934;2023-08-30T10:54:42;100353.38;;;22.31;53.43
77869;BME280;67231;59.144;37.934;2023-08-30T10:57:18;100351.28;;;22.33;53.82
77869;BME280;67231;59.144;37.934;2023-08-30T11:00:21;100349.47;;;21.95;54.69
77869;BME280;67231;59.144;37.934;2023-08-30T11:02:49;100361.38;;;21.88;55.12
77869;BME280;67231;59.144;37.934;2023-08-30T11:05:17;100349.03;;;21.98;54.76
77869;BME280;67231;59.144;37.934;2023-08-30T11:07:44;100345.66;;;22.03;54.44
77869;BME280;67231;59.144;37.934;2023-08-30T11:10:11;100337.03;;;21.88;54.64
77869;BME280;67231;59.144;37.934;2023-08-30T11:12:42;100327.16;;;21.81;55.46
77869;BME280;67231;59.144;37.934;2023-08-30T11:15:09;100335.47;;;21.73;54.73
77869;BME280;67231;59.144;37.934;2023-08-30T11:17:36;100343.84;;;21.72;55.12
77869;BME280;67231;59.144;37.934;2023-08-30T11:20:07;100338.06;;;21.93;54.08
77869;BME280;67231;59.144;37.934;2023-08-30T11:22:43;100333.69;;;21.92;53.67
77869;BME280;67231;59.144;37.934;2023-08-30T11:25:11;100326.22;;;21.94;53.73
77869;BME280;67231;59.144;37.934;2023-08-30T11:27:38;100321.25;;;21.91;53.74
77869;BME280;67231;59.144;37.934;2023-08-30T11:30:09;100321.78;;;22.00;53.05
77869;BME280;67231;59.144;37.934;2023-08-30T11:32:40;100320.88;;;22.38;52.65
77869;BME280;67231;59.144;37.934;2023-08-30T11:35:11;100324.81;;;22.61;52.68
77869;BME280;67231;59.144;37.934;2023-08-30T11:37:37;100333.50;;;22.44;52.61
77869;BME280;67231;59.144;37.934;2023-08-30T11:40:04;100338.56;;;22.34;52.11
77869;BME280;67231;59.144;37.934;2023-08-30T11:42:33;100337.53;;;22.35;51.79
77869;BME280;67231;59.144;37.934;2023-08-30T11:45:00;100342.50;;;22.38;51.60
77869;BME280;67231;59.144;37.934;2023-08-30T11:47:33;100345.00;;;22.40;52.17
77869;BME280;67231;59.144;37.934;2023-08-30T11:50:01;100337.69;;;22.40;52.25
77869;BME280;67231;59.144;37.934;2023-08-30T11:52:32;100335.69;;;22.54;52.00
77869;BME280;67231;59.144;37.934;2023-08-30T11:55:00;100332.03;;;22.67;51.51
77869;BME280;67231;59.144;37.934;2023-08-30T11:57:26;100331.88;;;22.62;51.21
77869;BME280;67231;59.144;37.934;2023-08-30T11:59:54;100326.13;;;22.51;51.35
77869;BME280;67231;59.144;37.934;2023-08-30T12:02:21;100324.78;;;22.42;51.26
77869;BME280;67231;59.144;37.934;2023-08-30T12:04:48;100320.28;;;22.36;51.13
77869;BME280;67231;59.144;37.934;2023-08-30T12:07:23;100322.63;;;22.26;51.18
77869;BME280;67231;59.144;37.934;2023-08-30T12:09:51;100315.38;;;22.19;51.23
77869;BME280;67231;59.144;37.934;2023-08-30T12:12:18;100315.44;;;22.13;51.11
77869;BME280;67231;59.144;37.934;2023-08-30T12:14:44;100314.47;;;22.07;51.17
77869;BME280;67231;59.144;37.934;2023-08-30T12:17:11;100319.53;;;21.97;50.90
77869;BME280;67231;59.144;37.934;2023-08-30T12:19:38;100304.19;;;21.91;51.00
77869;BME280;67231;59.144;37.934;2023-08-30T12:22:07;100309.28;;;21.80;51.34
77869;BME280;67231;59.144;37.934;2023-08-30T12:25:00;100293.97;;;21.68;51.68
77869;BME280;67231;59.144;37.934;2023-08-30T12:27:28;100299.94;;;21.76;51.77
77869;BME280;67231;59.144;37.934;2023-08-30T12:29:54;100307.59;;;21.79;51.14
77869;BME280;67231;59.144;37.934;2023-08-30T12:32:21;100301.09;;;21.87;51.32
77869;BME280;67231;59.144;37.934;2023-08-30T12:34:47;100305.25;;;21.90;50.81
77869;BME280;67231;59.144;37.934;2023-08-30T12:37:14;100312.94;;;21.93;50.54
77869;BME280;67231;59.144;37.934;2023-08-30T12:39:40;100309.94;;;22.01;50.84
77869;BME280;67231;59.144;37.934;2023-08-30T12:42:07;100292.88;;;22.00;50.43
77869;BME280;67231;59.144;37.934;2023-08-30T12:44:33;100291.75;;;21.90;50.87
77869;BME280;67231;59.144;37.934;2023-08-30T12:47:00;100279.38;;;21.75;50.55
77869;BME280;67231;59.144;37.934;2023-08-30T12:49:27;100266.81;;;21.62;50.79
77869;BME280;67231;59.144;37.934;2023-08-30T12:51:53;100266.22;;;21.54;51.09
77869;BME280;67231;59.144;37.934;2023-08-30T12:54:19;100266.69;;;21.44;51.30
77869;BME280;67231;59.144;37.934;2023-08-30T12:56:46;100258.19;;;21.40;51.58
77869;BME280;67231;59.144;37.934;2023-08-30T12:59:12;100245.34;;;21.36;51.77